Time;durP1;ratioP1;P1;durP2;ratioP2;P2;SDS_P1;SDS_P2;PMS_P1;PMS_P2;Temp;Humidity;BMP_temperature;BMP_pressure;BME280_temperature;BME280_humidity;BME280_pressure;Samples;Min_cycle;Max_cycle;Signal;HPM_P1;HPM_P2
2022/05/31 00:02:05;;;;;;;6.70;1.90;;;17.70;99.90;;;;;;4956345;28;20035;-79
2022/05/31 00:04:32;;;;;;;6.30;2.22;;;17.60;99.90;;;;;;4955858;28;20015;-79
2022/05/31 00:06:58;;;;;;;4.47;2.00;;;17.70;99.90;;;;;;4956359;28;20023;-79
2022/05/31 00:09:24;;;;;;;9.10;2.10;;;17.60;99.90;;;;;;4955994;28;20023;-78
2022/05/31 00:11:50;;;;;;;7.75;2.20;;;17.90;99.90;;;;;;4955960;28;20491;-80
2022/05/31 00:14:16;;;;;;;8.85;3.33;;;18.10;99.90;;;;;;4955737;29;20023;-79
2022/05/31 00:16:45;;;;;;;6.43;2.60;;;17.70;99.90;;;;;;4955880;28;20051;-79
2022/05/31 00:19:12;;;;;;;5.78;2.15;;;17.70;99.90;;;;;;4954747;28;20439;-79
2022/05/31 00:21:42;;;;;;;7.78;2.42;;;17.80;99.90;;;;;;4954119;29;20035;-79
2022/05/31 00:24:12;;;;;;;7.45;2.17;;;17.90;99.90;;;;;;4956308;29;20035;-79
2022/05/31 00:26:39;;;;;;;7.82;2.78;;;18.10;99.90;;;;;;4955784;28;20527;-79
2022/05/31 00:29:07;;;;;;;7.70;3.55;;;18.00;99.90;;;;;;4954524;29;20038;-79
2022/05/31 00:31:34;;;;;;;5.93;2.40;;;18.10;99.90;;;;;;4955297;28;20399;-79
2022/05/31 00:33:59;;;;;;;6.05;2.00;;;18.00;99.90;;;;;;4955830;28;20027;-79
2022/05/31 00:36:25;;;;;;;6.25;2.65;;;18.00;99.90;;;;;;4955237;28;20507;-79
2022/05/31 00:38:53;;;;;;;5.18;2.30;;;18.00;99.90;;;;;;4955576;28;20069;-79
2022/05/31 00:41:25;;;;;;;5.32;2.25;;;18.00;99.90;;;;;;4955508;28;20023;-79
2022/05/31 00:44:06;;;;;;;8.40;2.80;;;18.00;99.90;;;;;;4955507;28;20019;-79
2022/05/31 00:46:42;;;;;;;10.82;2.67;;;18.10;99.90;;;;;;4954172;29;20373;-79
2022/05/31 00:49:11;;;;;;;8.20;2.97;;;18.10;99.90;;;;;;4954986;28;20027;-79
2022/05/31 00:51:46;;;;;;;8.40;2.70;;;18.20;99.90;;;;;;4955200;28;20031;-79
2022/05/31 00:54:17;;;;;;;6.07;2.42;;;18.20;99.90;;;;;;4954082;28;20483;-79
2022/05/31 00:56:44;;;;;;;11.93;2.83;;;18.20;99.90;;;;;;4986413;28;20487;-79
2022/05/31 00:59:18;;;;;;;12.23;3.10;;;18.10;99.90;;;;;;4954673;28;20054;-79
2022/05/31 01:01:47;;;;;;;10.77;3.80;;;17.90;99.90;;;;;;4951252;28;20035;-79
2022/05/31 01:04:14;;;;;;;22.13;3.58;;;18.00;99.90;;;;;;4961866;28;20065;-79
2022/05/31 01:06:40;;;;;;;9.98;3.85;;;18.00;99.90;;;;;;4954712;28;20482;-79
2022/05/31 01:09:06;;;;;;;8.43;3.22;;;17.80;99.90;;;;;;4955087;28;20019;-79
2022/05/31 01:11:38;;;;;;;9.45;3.15;;;17.60;99.90;;;;;;4973337;28;20103;-79
2022/05/31 01:14:04;;;;;;;10.35;2.72;;;17.60;99.90;;;;;;4973276;28;20093;-78
2022/05/31 01:16:30;;;;;;;9.90;2.72;;;17.60;99.90;;;;;;4974033;28;20027;-79
2022/05/31 01:18:56;;;;;;;8.85;2.50;;;17.30;99.90;;;;;;4973746;28;20031;-79
2022/05/31 01:21:22;;;;;;;8.25;2.70;;;17.40;99.90;;;;;;4966692;28;20090;-79
2022/05/31 01:23:55;;;;;;;9.82;2.42;;;17.60;99.90;;;;;;4954686;28;20382;-79
2022/05/31 01:26:35;;;;;;;5.75;2.78;;;17.30;99.90;;;;;;4935542;29;20028;-78
2022/05/31 01:29:15;;;;;;;6.28;2.40;;;17.30;99.90;;;;;;4935756;29;20019;-79
2022/05/31 01:31:46;;;;;;;12.07;2.60;;;17.50;99.90;;;;;;4935189;29;20023;-79
2022/05/31 01:34:18;;;;;;;6.78;2.20;;;17.30;99.90;;;;;;4944101;28;20470;-79
2022/05/31 01:36:53;;;;;;;8.57;2.38;;;17.30;99.90;;;;;;4953235;29;20122;-79
2022/05/31 01:39:44;;;;;;;8.63;2.70;;;17.10;99.90;;;;;;4954589;29;20074;-78
2022/05/31 01:42:12;;;;;;;7.03;3.00;;;17.20;99.90;;;;;;4954631;28;20106;-78
2022/05/31 01:44:43;;;;;;;4.93;2.40;;;17.00;99.90;;;;;;4954536;29;20030;-78
2022/05/31 01:47:09;;;;;;;7.85;2.60;;;17.10;99.90;;;;;;4954380;29;20023;-79
2022/05/31 01:49:38;;;;;;;6.90;2.38;;;16.90;99.90;;;;;;4940595;28;20035;-79
2022/05/31 01:52:05;;;;;;;6.68;2.40;;;17.00;99.90;;;;;;4970106;28;20113;-79
2022/05/31 01:54:32;;;;;;;4.03;1.92;;;17.10;99.90;;;;;;4972096;28;20022;-80
2022/05/31 01:57:01;;;;;;;5.03;2.20;;;17.10;99.90;;;;;;4971719;28;20033;-79
2022/05/31 01:59:31;;;;;;;5.65;2.45;;;16.90;99.90;;;;;;4950497;28;20095;-79
2022/05/31 02:01:58;;;;;;;9.10;2.97;;;16.90;99.90;;;;;;4934800;29;20042;-79
2022/05/31 02:04:24;;;;;;;6.57;2.00;;;16.90;99.90;;;;;;4934923;29;20477;-79
2022/05/31 02:07:10;;;;;;;6.53;1.85;;;16.80;99.90;;;;;;4935164;29;20035;-79
2022/05/31 02:09:36;;;;;;;4.57;1.50;;;16.60;99.90;;;;;;4934520;29;20034;-79
2022/05/31 02:12:01;;;;;;;4.63;2.10;;;16.60;99.90;;;;;;4947147;28;20030;-79
2022/05/31 02:14:27;;;;;;;7.60;2.40;;;16.70;99.90;;;;;;4954247;28;20023;-79
2022/05/31 02:16:53;;;;;;;2.97;1.67;;;16.70;99.90;;;;;;4953366;29;20106;-79
2022/05/31 02:19:25;;;;;;;3.17;1.67;;;16.70;99.90;;;;;;4953798;28;20526;-79
2022/05/31 02:21:56;;;;;;;5.88;2.20;;;16.50;99.90;;;;;;4953536;29;20032;-78
2022/05/31 02:24:24;;;;;;;4.05;2.00;;;16.40;99.90;;;;;;4954098;28;20023;-79
2022/05/31 02:26:49;;;;;;;6.47;2.00;;;16.50;99.90;;;;;;4951864;29;20035;-79
2022/05/31 02:29:20;;;;;;;5.18;1.90;;;16.50;99.90;;;;;;4954102;28;20015;-79
2022/05/31 02:31:47;;;;;;;4.68;2.10;;;16.40;99.90;;;;;;4953293;29;20086;-78
2022/05/31 02:34:16;;;;;;;4.43;1.85;;;16.30;99.90;;;;;;4954208;28;20047;-79
2022/05/31 02:36:42;;;;;;;5.15;1.98;;;16.40;99.90;;;;;;4952784;28;20035;-79
2022/05/31 02:39:08;;;;;;;6.20;2.05;;;16.40;99.90;;;;;;4954109;28;20027;-79
2022/05/31 02:41:35;;;;;;;9.25;2.30;;;16.30;99.90;;;;;;4954914;28;20030;-79
2022/05/31 02:44:01;;;;;;;3.63;2.13;;;16.10;99.90;;;;;;4957714;28;20111;-79
2022/05/31 02:46:27;;;;;;;4.88;2.00;;;16.20;99.90;;;;;;4957306;28;20102;-79
2022/05/31 02:48:53;;;;;;;5.75;2.40;;;15.90;99.90;;;;;;4957290;28;20539;-79
2022/05/31 02:51:19;;;;;;;7.53;2.63;;;16.00;99.90;;;;;;4957726;28;20038;-79
2022/05/31 02:53:45;;;;;;;6.40;2.65;;;16.10;99.90;;;;;;4957427;28;20031;-78
2022/05/31 02:56:10;;;;;;;7.63;2.28;;;16.10;99.90;;;;;;4957776;28;20063;-78
2022/05/31 02:58:36;;;;;;;7.45;2.70;;;16.10;99.90;;;;;;4942323;28;20098;-78
2022/05/31 03:01:17;;;;;;;6.72;2.65;;;16.00;99.90;;;;;;4955918;28;20035;-79
2022/05/31 03:03:42;;;;;;;7.93;2.50;;;16.10;99.90;;;;;;4959732;28;20058;-78
2022/05/31 03:06:08;;;;;;;6.35;2.70;;;16.10;99.90;;;;;;4961130;28;20517;-78
2022/05/31 03:08:34;;;;;;;4.82;2.22;;;16.00;99.90;;;;;;4955857;28;20027;-79
2022/05/31 03:11:01;;;;;;;6.22;2.70;;;16.00;99.90;;;;;;4957183;28;20078;-79
2022/05/31 03:13:29;;;;;;;7.63;2.55;;;16.00;99.90;;;;;;4957211;29;20042;-78
2022/05/31 03:16:01;;;;;;;9.43;2.65;;;16.00;99.90;;;;;;4956956;28;20098;-80
2022/05/31 03:18:32;;;;;;;6.68;2.45;;;15.80;99.90;;;;;;4968718;28;20100;-78
2022/05/31 03:21:04;;;;;;;5.13;2.58;;;15.70;99.90;;;;;;4976205;28;20488;-79
2022/05/31 03:23:32;;;;;;;13.60;2.95;;;15.70;99.90;;;;;;4976394;28;20019;-79
2022/05/31 03:26:01;;;;;;;6.90;2.75;;;15.70;99.90;;;;;;4957826;28;20472;-78
2022/05/31 03:28:28;;;;;;;8.40;2.60;;;15.60;99.90;;;;;;4957249;28;20044;-79
2022/05/31 03:30:54;;;;;;;6.90;2.85;;;15.80;99.90;;;;;;4956123;28;20035;-78
2022/05/31 03:33:20;;;;;;;5.70;2.53;;;15.80;99.90;;;;;;4956983;28;20135;-78
2022/05/31 03:35:46;;;;;;;11.27;2.90;;;15.70;99.90;;;;;;4956452;28;20038;-79
2022/05/31 03:38:11;;;;;;;6.63;2.60;;;15.70;99.90;;;;;;4957177;28;20024;-79
2022/05/31 03:40:56;;;;;;;7.25;2.47;;;15.70;99.90;;;;;;4956419;28;20038;-78
2022/05/31 03:43:23;;;;;;;8.88;2.75;;;15.50;99.90;;;;;;4955233;29;20122;-78
2022/05/31 03:45:48;;;;;;;12.50;3.65;;;15.50;99.90;;;;;;4955955;28;20034;-79
2022/05/31 03:48:14;;;;;;;6.13;2.50;;;15.40;99.90;;;;;;4956612;28;20023;-78
2022/05/31 03:50:40;;;;;;;5.47;2.35;;;15.30;99.90;;;;;;4955377;28;20030;-79
2022/05/31 03:53:08;;;;;;;6.03;2.42;;;15.50;99.90;;;;;;4956298;28;20053;-78
2022/05/31 03:55:42;;;;;;;10.82;2.38;;;15.60;99.90;;;;;;4956528;28;20035;-78
2022/05/31 03:58:08;;;;;;;7.97;2.38;;;15.50;99.90;;;;;;4956211;28;20046;-78
2022/05/31 04:00:35;;;;;;;7.63;2.88;;;15.60;99.90;;;;;;4972515;28;20039;-78
2022/05/31 04:03:00;;;;;;;10.90;3.03;;;15.50;99.90;;;;;;4975134;28;20034;-79
2022/05/31 04:05:27;;;;;;;8.50;2.38;;;15.60;99.90;;;;;;4976172;28;20038;-79
2022/05/31 04:07:54;;;;;;;12.00;3.65;;;15.20;99.90;;;;;;4975252;28;20019;-79
2022/05/31 04:10:19;;;;;;;10.40;2.67;;;15.20;99.90;;;;;;4975654;28;20078;-79
2022/05/31 04:12:45;;;;;;;9.30;2.90;;;15.10;99.90;;;;;;4975305;28;20023;-80
2022/05/31 04:15:11;;;;;;;14.63;3.38;;;15.20;99.90;;;;;;4959507;28;20066;-81
2022/05/31 04:17:37;;;;;;;10.25;3.05;;;15.10;99.90;;;;;;4956366;29;20432;-78
2022/05/31 04:20:04;;;;;;;5.47;2.70;;;15.10;99.90;;;;;;4955593;28;20051;-79
2022/05/31 04:22:29;;;;;;;6.90;2.80;;;15.10;99.90;;;;;;4955863;28;20046;-78
2022/05/31 04:25:00;;;;;;;6.60;2.65;;;15.10;99.90;;;;;;4955114;28;20023;-79
2022/05/31 04:27:27;;;;;;;10.95;2.88;;;14.90;99.90;;;;;;4946876;28;20028;-79
2022/05/31 04:29:53;;;;;;;9.45;2.40;;;14.50;99.90;;;;;;4952308;29;20031;-79
2022/05/31 04:32:18;;;;;;;10.55;2.60;;;14.70;99.90;;;;;;4955764;28;20027;-80
2022/05/31 04:34:45;;;;;;;8.20;3.10;;;14.70;99.90;;;;;;4968237;28;20479;-79
2022/05/31 04:37:11;;;;;;;9.80;2.60;;;14.60;99.90;;;;;;4975025;28;20062;-79
2022/05/31 04:39:37;;;;;;;9.80;2.70;;;14.80;99.90;;;;;;4963843;28;20133;-79
2022/05/31 04:42:03;;;;;;;7.72;3.45;;;14.70;99.90;;;;;;4951922;28;20058;-79
2022/05/31 04:44:29;;;;;;;14.70;2.97;;;14.70;99.90;;;;;;4951864;28;20547;-78
2022/05/31 04:46:54;;;;;;;9.00;3.15;;;14.70;99.90;;;;;;4951142;28;20034;-78
2022/05/31 04:49:21;;;;;;;8.00;3.30;;;14.50;99.90;;;;;;4944204;28;20114;-78
2022/05/31 04:51:47;;;;;;;11.90;3.20;;;14.70;99.90;;;;;;4973223;28;20026;-79
2022/05/31 04:54:13;;;;;;;5.30;2.67;;;14.60;99.90;;;;;;4946388;29;20039;-79
2022/05/31 04:56:39;;;;;;;7.53;2.95;;;14.60;99.90;;;;;;4970860;28;20023;-79
2022/05/31 04:59:05;;;;;;;9.50;3.45;;;14.50;99.90;;;;;;4945331;29;20035;-79
2022/05/31 05:01:34;;;;;;;6.93;2.90;;;14.50;99.90;;;;;;4960537;28;20027;-79
2022/05/31 05:03:59;;;;;;;8.27;2.80;;;14.40;99.90;;;;;;4937911;29;20023;-79
2022/05/31 05:06:25;;;;;;;12.35;3.22;;;14.30;99.90;;;;;;4955446;29;20364;-79
2022/05/31 05:08:51;;;;;;;7.03;3.20;;;14.40;99.90;;;;;;4950433;28;20082;-79
2022/05/31 05:11:21;;;;;;;7.80;2.50;;;14.50;99.90;;;;;;4950135;28;20067;-79
2022/05/31 05:13:47;;;;;;;6.30;2.45;;;14.50;99.90;;;;;;4943401;29;20028;-79
2022/05/31 05:16:14;;;;;;;5.45;2.30;;;14.40;99.90;;;;;;4951486;28;20067;-82
2022/05/31 11:22:49;;;;;;;6.32;2.10;;;25.80;66.50;;;;;;5570593;23;20065;-75
2022/05/31 11:25:15;;;;;;;;;;;25.50;66.30;;;;;;4979130;28;20035;-74
2022/05/31 11:27:56;;;;;;;4.35;2.05;;;25.50;67.50;;;;;;4973572;28;20068;-80
2022/05/31 11:30:35;;;;;;;6.70;2.47;;;25.50;67.70;;;;;;4988515;28;20597;-78
2022/05/31 11:33:39;;;;;;;6.70;2.10;;;25.40;67.60;;;;;;4983366;28;20513;-78
2022/05/31 11:36:32;;;;;;;10.98;2.15;;;25.80;65.20;;;;;;4977368;28;20481;-80
2022/05/31 11:39:15;;;;;;;6.53;1.83;;;25.90;66.80;;;;;;4983120;28;20023;-79
2022/05/31 11:41:53;;;;;;;8.40;2.22;;;26.10;66.90;;;;;;4976430;28;20370;-79
2022/05/31 11:44:49;;;;;;;6.95;2.25;;;25.40;64.60;;;;;;4976567;28;20490;-79
2022/05/31 11:47:34;;;;;;;7.30;2.78;;;25.30;65.70;;;;;;4984285;28;20057;-79
2022/05/31 11:50:18;;;;;;;7.03;2.63;;;26.10;67.00;;;;;;4978796;28;20081;-79
2022/05/31 11:53:25;;;;;;;6.72;2.70;;;26.00;64.60;;;;;;4986953;28;20442;-79
2022/05/31 11:56:14;;;;;;;7.30;2.10;;;26.10;65.00;;;;;;4965029;28;20102;-79
2022/05/31 11:58:45;;;;;;;8.38;2.25;;;26.30;66.90;;;;;;4956294;28;20050;-79
2022/05/31 12:01:28;;;;;;;5.80;1.80;;;26.10;65.60;;;;;;4952775;28;20070;-79
2022/05/31 12:04:00;;;;;;;5.88;1.80;;;25.70;64.50;;;;;;4970637;28;20030;-79
2022/05/31 12:06:45;;;;;;;4.53;1.98;;;26.10;64.20;;;;;;4968387;28;20084;-79
2022/05/31 12:09:14;;;;;;;7.65;2.17;;;25.80;64.60;;;;;;4969501;28;20023;-81
2022/05/31 12:12:03;;;;;;;6.68;2.30;;;26.10;64.00;;;;;;4961827;28;20030;-81
2022/05/31 12:14:32;;;;;;;5.40;1.98;;;26.40;63.20;;;;;;4951424;28;20070;-81
2022/05/31 12:16:58;;;;;;;6.78;2.53;;;26.90;62.10;;;;;;4957768;28;20058;-81
2022/05/31 12:19:48;;;;;;;4.45;2.08;;;26.80;63.50;;;;;;4959373;28;20106;-81
2022/05/31 12:22:18;;;;;;;6.78;1.88;;;26.90;61.30;;;;;;4958603;28;20054;-80
2022/05/31 12:24:51;;;;;;;5.60;1.70;;;26.60;61.70;;;;;;4965183;28;20170;-81
2022/05/31 12:27:37;;;;;;;6.22;1.85;;;26.80;62.80;;;;;;4953485;28;20110;-81
2022/05/31 12:30:16;;;;;;;8.88;2.17;;;26.60;62.10;;;;;;4964167;28;20030;-81
2022/05/31 12:32:46;;;;;;;11.32;1.85;;;26.80;61.20;;;;;;4958046;28;20031;-81
2022/05/31 12:35:32;;;;;;;3.92;1.90;;;26.80;60.00;;;;;;4964135;28;20023;-81
2022/05/31 12:38:00;;;;;;;9.50;2.25;;;26.60;61.00;;;;;;4953043;28;20031;-81
2022/05/31 12:40:38;;;;;;;7.85;2.33;;;26.70;60.90;;;;;;4966790;28;20027;-81
2022/05/31 12:43:06;;;;;;;7.07;2.22;;;26.50;61.60;;;;;;4956780;28;20035;-81
2022/05/31 12:45:32;;;;;;;4.63;1.85;;;26.70;61.20;;;;;;4965313;28;20422;-78
2022/05/31 12:48:19;;;;;;;8.95;1.85;;;26.80;60.40;;;;;;4958909;28;20023;-80
2022/05/31 12:50:51;;;;;;;6.70;1.75;;;26.70;62.10;;;;;;4963224;28;20031;-81
2022/05/31 12:53:20;;;;;;;4.35;1.60;;;26.90;60.40;;;;;;4965679;28;20506;-80
2022/05/31 12:55:47;;;;;;;5.40;1.77;;;27.20;60.70;;;;;;4962601;28;20502;-80
2022/05/31 12:58:42;;;;;;;4.30;1.73;;;26.90;62.60;;;;;;4960439;28;20037;-81
2022/05/31 13:01:10;;;;;;;4.18;1.95;;;26.90;59.60;;;;;;4957156;28;20034;-81
2022/05/31 13:03:42;;;;;;;9.45;1.70;;;26.50;61.30;;;;;;4964496;28;20031;-81
2022/05/31 13:06:09;;;;;;;;;;;26.30;61.10;;;;;;4962954;28;20378;-81
2022/05/31 13:08:55;;;;;;;6.97;2.08;;;26.50;59.90;;;;;;4960487;28;20332;-81
2022/05/31 13:20:20;;;;;;;4.15;1.70;;;26.50;59.40;;;;;;4956853;28;20118;-81
2022/05/31 13:23:11;;;;;;;13.18;2.20;;;26.30;59.20;;;;;;4967063;28;20054;-81
2022/05/31 13:25:51;;;;;;;9.32;1.80;;;26.40;58.60;;;;;;4958665;28;20029;-81
2022/05/31 13:28:33;;;;;;;6.88;1.98;;;26.70;59.00;;;;;;4953532;28;20113;-81
2022/05/31 13:31:03;;;;;;;;;;;26.60;59.40;;;;;;4968914;28;20027;-80
2022/05/31 13:33:31;;;;;;;4.65;1.60;;;26.40;60.50;;;;;;4963267;28;19913;-81
2022/05/31 13:36:04;;;;;;;2.60;1.40;;;26.40;58.80;;;;;;4955916;28;20029;-81
2022/05/31 13:38:36;;;;;;;5.22;1.85;;;26.50;59.20;;;;;;4961769;28;20054;-81
2022/05/31 13:41:03;;;;;;;;;;;26.80;57.90;;;;;;4963625;28;20034;-81
2022/05/31 13:43:33;;;;;;;3.35;1.40;;;27.00;58.60;;;;;;4956398;28;19914;-81
2022/05/31 13:46:03;;;;;;;5.93;1.80;;;27.20;57.40;;;;;;4968145;28;20105;-81
2022/05/31 13:48:39;;;;;;;5.30;1.65;;;27.20;58.30;;;;;;4959381;28;20382;-81
2022/05/31 13:51:10;;;;;;;3.92;1.60;;;26.90;57.60;;;;;;4963700;28;20113;-81
2022/05/31 13:53:39;;;;;;;3.92;1.45;;;26.70;57.30;;;;;;4957250;28;20066;-80
2022/05/31 13:56:05;;;;;;;6.70;1.92;;;26.70;55.80;;;;;;4963949;28;20031;-80
2022/05/31 13:58:34;;;;;;;4.70;2.10;;;26.60;56.40;;;;;;4966581;28;20030;-78
2022/05/31 14:01:01;;;;;;;3.90;2.00;;;26.50;57.00;;;;;;4954806;28;20050;-78
2022/05/31 14:03:39;;;;;;;4.45;1.48;;;26.90;57.20;;;;;;4961402;28;20049;-77
2022/05/31 14:06:13;;;;;;;5.38;1.85;;;26.90;57.50;;;;;;4959183;28;20040;-77
2022/05/31 14:08:45;;;;;;;6.45;2.10;;;26.70;57.70;;;;;;4961718;28;20383;-77
2022/05/31 14:11:27;;;;;;;8.68;1.77;;;26.90;59.00;;;;;;4970309;28;20034;-77
2022/05/31 14:13:57;;;;;;;6.20;2.13;;;26.60;58.10;;;;;;4973914;28;20085;-76
2022/05/31 14:16:39;;;;;;;3.15;1.48;;;26.80;58.00;;;;;;4967324;28;20067;-76
2022/05/31 14:19:16;;;;;;;5.00;1.70;;;26.40;58.60;;;;;;4963335;28;20434;-80
2022/05/31 14:21:44;;;;;;;2.95;1.52;;;26.80;57.20;;;;;;4973274;28;20035;-80
2022/05/31 14:24:15;;;;;;;4.20;1.98;;;27.00;57.50;;;;;;4969802;28;20030;-80
2022/05/31 14:26:43;;;;;;;5.38;2.10;;;27.00;56.90;;;;;;4962747;28;20395;-79
2022/05/31 14:29:18;;;;;;;7.43;1.90;;;27.00;56.30;;;;;;4967213;28;20030;-79
2022/05/31 14:32:03;;;;;;;4.90;1.58;;;27.10;57.10;;;;;;4969070;28;20371;-78
2022/05/31 14:34:48;;;;;;;5.95;1.92;;;26.60;57.20;;;;;;4964710;28;20034;-79
2022/05/31 14:37:31;;;;;;;7.32;1.80;;;26.90;56.70;;;;;;4967685;28;20030;-79
2022/05/31 14:40:04;;;;;;;6.80;1.60;;;26.80;55.80;;;;;;4959282;28;20065;-79
2022/05/31 14:42:40;;;;;;;7.78;1.70;;;26.90;56.80;;;;;;4970095;28;20141;-80
2022/05/31 14:45:12;;;;;;;6.85;1.60;;;27.20;57.30;;;;;;4959687;28;20027;-78
2022/05/31 14:47:38;;;;;;;4.78;1.70;;;27.10;57.00;;;;;;4972923;28;20021;-80
2022/05/31 14:50:27;;;;;;;5.35;1.40;;;27.10;56.60;;;;;;4964096;28;20540;-79
2022/05/31 14:52:59;;;;;;;4.53;1.88;;;27.00;55.10;;;;;;4969323;28;20031;-78
2022/05/31 14:55:30;;;;;;;6.57;2.00;;;26.80;56.70;;;;;;4952738;28;20055;-79
2022/05/31 15:00:50;;;;;;;10.55;2.10;;;27.00;56.30;;;;;;4960627;28;20482;-80
2022/05/31 15:03:35;;;;;;;6.43;1.98;;;27.20;58.10;;;;;;4956053;28;20028;-79
2022/05/31 15:06:13;;;;;;;5.35;1.75;;;27.30;57.20;;;;;;4961112;28;20558;-79
2022/05/31 15:08:57;;;;;;;6.97;2.10;;;27.10;56.30;;;;;;4973024;28;20478;-79
2022/05/31 15:19:26;;;;;;;5.90;2.17;;;26.90;56.50;;;;;;4971983;28;20510;-76
2022/05/31 15:21:52;;;;;;;8.18;2.08;;;27.00;55.70;;;;;;4960182;28;20043;-76
2022/05/31 15:24:48;;;;;;;4.38;1.60;;;27.00;56.00;;;;;;4960799;28;20023;-79
2022/05/31 15:27:33;;;;;;;7.78;1.85;;;26.50;55.90;;;;;;4967846;28;20098;-80
2022/05/31 15:29:59;;;;;;;5.63;1.70;;;26.50;56.50;;;;;;4946383;28;20027;-75
2022/05/31 15:32:27;;;;;;;3.40;1.30;;;26.50;56.30;;;;;;4960928;28;20024;-76
2022/05/31 15:34:52;;;;;;;5.10;1.73;;;26.70;56.60;;;;;;4966551;28;20027;-76
2022/05/31 15:37:21;;;;;;;4.93;1.92;;;26.90;57.40;;;;;;4969393;28;20033;-75
2022/05/31 15:39:48;;;;;;;7.45;1.90;;;27.00;57.30;;;;;;4955028;28;20114;-76
2022/05/31 15:42:19;;;;;;;4.97;1.65;;;26.80;56.60;;;;;;4953429;28;20113;-77
2022/05/31 15:44:45;;;;;;;6.67;1.70;;;26.90;55.80;;;;;;4967202;28;20572;-76
2022/05/31 15:47:12;;;;;;;8.50;2.42;;;27.00;56.60;;;;;;4972616;28;20037;-76
2022/05/31 15:49:39;;;;;;;4.40;1.60;;;27.00;56.30;;;;;;4970820;28;20482;-75
2022/05/31 15:52:15;;;;;;;5.70;1.73;;;26.80;55.60;;;;;;4975045;28;20117;-76
2022/05/31 15:54:53;;;;;;;5.35;1.73;;;26.70;55.70;;;;;;4974079;28;20026;-76
2022/05/31 15:57:19;;;;;;;10.25;2.53;;;26.30;56.50;;;;;;4961946;28;20036;-76
2022/05/31 15:59:45;;;;;;;7.25;1.58;;;26.40;57.80;;;;;;4956479;28;20487;-76
2022/05/31 16:02:10;;;;;;;8.02;2.25;;;26.80;55.70;;;;;;4962448;28;20458;-76
2022/05/31 16:04:38;;;;;;;4.38;1.83;;;26.90;55.70;;;;;;4967913;28;20026;-76
2022/05/31 16:07:13;;;;;;;5.00;1.60;;;27.00;54.90;;;;;;4962401;28;20038;-77
2022/05/31 16:09:41;;;;;;;6.43;1.70;;;26.90;56.00;;;;;;4973422;28;20529;-78
2022/05/31 16:12:10;;;;;;;7.00;1.60;;;26.70;56.30;;;;;;4974959;28;20033;-76
2022/05/31 16:14:42;;;;;;;10.30;1.90;;;26.90;54.80;;;;;;4958071;28;20103;-75
2022/05/31 16:17:08;;;;;;;9.82;1.90;;;26.90;55.30;;;;;;4961558;28;20038;-77
2022/05/31 16:19:34;;;;;;;5.25;1.58;;;26.60;55.20;;;;;;4959777;28;20024;-76
2022/05/31 16:22:01;;;;;;;13.35;2.10;;;26.80;55.20;;;;;;4965353;28;20075;-78
2022/05/31 16:24:27;;;;;;;23.08;2.45;;;26.50;55.20;;;;;;4960113;28;20051;-84
2022/05/31 16:26:54;;;;;;;5.40;1.90;;;26.60;55.70;;;;;;4975871;28;20051;-84
2022/05/31 16:29:21;;;;;;;6.88;2.55;;;26.60;55.80;;;;;;4990432;28;20106;-83
2022/05/31 16:31:47;;;;;;;7.32;2.10;;;26.70;55.90;;;;;;4976027;28;20550;-84
2022/05/31 16:34:18;;;;;;;11.32;2.10;;;26.90;55.90;;;;;;4975344;28;20023;-82
2022/05/31 16:36:46;;;;;;;8.07;1.80;;;26.80;56.10;;;;;;4966745;28;20413;-82
2022/05/31 16:41:57;;;;;;;5.82;2.40;;;26.70;54.90;;;;;;4966853;28;20031;-82
2022/05/31 16:44:27;;;;;;;5.45;1.60;;;26.80;54.70;;;;;;4956762;28;20514;-81
2022/05/31 16:46:54;;;;;;;7.97;2.22;;;26.70;55.10;;;;;;4989182;28;20071;-82
2022/05/31 16:49:20;;;;;;;4.57;1.55;;;26.80;54.70;;;;;;4968833;28;20028;-82
2022/05/31 16:51:50;;;;;;;4.38;1.60;;;26.70;55.00;;;;;;4975766;28;20022;-84
2022/05/31 16:54:20;;;;;;;5.93;1.50;;;26.80;55.60;;;;;;4975064;28;20097;-83
2022/05/31 16:56:48;;;;;;;7.78;1.92;;;26.80;54.80;;;;;;4975280;28;20031;-84
2022/05/31 16:59:14;;;;;;;5.18;1.92;;;26.80;54.40;;;;;;4975602;28;20081;-77
2022/05/31 17:01:40;;;;;;;10.95;2.22;;;26.70;54.90;;;;;;4970215;28;20038;-77
2022/05/31 17:04:06;;;;;;;6.93;1.90;;;26.60;54.00;;;;;;4975474;28;20463;-79
2022/05/31 17:14:49;;;;;;;5.95;1.60;;;26.60;54.80;;;;;;4956096;29;20883;-79
2022/05/31 17:17:17;;;;;;;8.88;1.70;;;26.50;55.20;;;;;;4955653;28;20027;-80
2022/05/31 17:19:43;;;;;;;8.35;2.00;;;26.60;56.40;;;;;;4955813;28;20023;-80
2022/05/31 17:22:08;;;;;;;11.38;2.63;;;26.60;55.90;;;;;;4964827;28;20043;-82
2022/05/31 17:24:42;;;;;;;10.63;1.77;;;26.50;55.50;;;;;;4955723;28;20020;-79
2022/05/31 17:27:09;;;;;;;9.55;2.08;;;26.40;56.30;;;;;;4963756;28;20042;-83
2022/05/31 17:29:35;;;;;;;6.80;1.70;;;26.40;58.00;;;;;;4962156;28;20031;-87
2022/05/31 17:32:00;;;;;;;7.25;1.77;;;26.30;56.40;;;;;;4970994;28;20016;-85
2022/05/31 17:34:26;;;;;;;6.97;1.65;;;26.20;57.90;;;;;;4959869;28;20019;-83
2022/05/31 17:36:52;;;;;;;7.30;2.25;;;26.10;55.70;;;;;;4955645;28;20058;-84
2022/05/31 17:39:18;;;;;;;5.60;1.90;;;25.90;56.20;;;;;;4971976;28;20110;-83
2022/05/31 17:41:55;;;;;;;4.95;1.77;;;25.90;57.50;;;;;;4973718;28;20467;-81
2022/05/31 17:44:21;;;;;;;5.07;1.85;;;25.90;57.90;;;;;;4968724;28;20022;-83
2022/05/31 17:46:47;;;;;;;4.45;2.13;;;25.80;58.30;;;;;;4974044;28;20019;-84
2022/05/31 17:49:14;;;;;;;6.40;1.90;;;25.90;57.70;;;;;;4961179;28;20035;-83
2022/05/31 17:51:42;;;;;;;5.60;1.95;;;25.90;57.50;;;;;;4960986;28;20019;-84
2022/05/31 17:54:34;;;;;;;7.15;2.35;;;25.90;59.00;;;;;;4971831;28;20095;-83
2022/05/31 17:57:01;;;;;;;;;;;25.80;57.50;;;;;;4964481;28;20038;-82
2022/05/31 17:59:27;;;;;;;5.07;1.63;;;25.80;57.90;;;;;;4974376;28;19906;-84
2022/05/31 18:01:52;;;;;;;6.63;1.70;;;25.70;57.40;;;;;;4971664;28;20529;-86
2022/05/31 18:04:20;;;;;;;3.55;1.67;;;25.60;57.10;;;;;;4973818;28;20019;-85
2022/05/31 18:06:49;;;;;;;7.93;1.90;;;25.60;58.50;;;;;;4968662;28;20041;-82
2022/05/31 18:09:29;;;;;;;6.95;1.70;;;25.50;62.20;;;;;;4967267;28;20031;-83
2022/05/31 18:11:56;;;;;;;4.80;2.25;;;25.40;61.00;;;;;;4973129;28;20071;-83
2022/05/31 18:14:22;;;;;;;6.93;2.10;;;25.40;59.80;;;;;;4960792;28;20030;-82
2022/05/31 18:16:48;;;;;;;5.53;1.67;;;25.40;59.20;;;;;;4971746;28;20081;-84
2022/05/31 18:19:13;;;;;;;5.28;1.40;;;25.30;60.80;;;;;;4960365;28;20431;-83
2022/05/31 18:21:40;;;;;;;3.97;1.75;;;25.20;62.60;;;;;;4963855;28;20035;-80
2022/05/31 18:24:16;;;;;;;8.25;1.80;;;25.20;62.40;;;;;;4960846;28;20589;-80
2022/05/31 18:26:43;;;;;;;14.45;2.10;;;25.20;62.30;;;;;;4964237;28;20022;-81
2022/05/31 18:32:03;;;;;;;4.20;1.67;;;25.00;62.80;;;;;;4955733;28;20038;-77
2022/05/31 18:34:29;;;;;;;6.53;2.25;;;24.90;64.00;;;;;;4954358;28;20102;-77
2022/05/31 18:37:27;;;;;;;6.78;2.40;;;24.80;66.60;;;;;;4954302;28;20102;-77
2022/05/31 18:42:17;;;;;;;6.40;1.98;;;24.70;68.90;;;;;;4953770;28;20035;-77
2022/05/31 18:44:44;;;;;;;;;;;24.70;70.30;;;;;;4960126;28;20085;-78
2022/05/31 18:47:14;;;;;;;9.23;2.22;;;24.70;67.80;;;;;;4962440;28;19921;-77
2022/05/31 18:49:39;;;;;;;9.05;1.98;;;24.60;67.90;;;;;;4954835;28;20027;-77
2022/05/31 18:52:05;;;;;;;6.50;2.05;;;24.50;67.60;;;;;;4962997;28;20034;-78
2022/05/31 18:54:31;;;;;;;3.70;2.08;;;24.40;67.40;;;;;;4960252;28;20016;-77
2022/05/31 18:56:57;;;;;;;5.18;2.38;;;24.30;67.50;;;;;;4961410;28;20037;-77
2022/05/31 18:59:23;;;;;;;5.05;2.28;;;24.30;69.50;;;;;;4970651;28;20035;-80
2022/05/31 19:01:56;;;;;;;7.30;2.78;;;24.30;72.70;;;;;;4957817;28;20043;-78
2022/05/31 19:04:22;;;;;;;7.18;2.92;;;24.20;71.30;;;;;;4953311;28;20023;-78
2022/05/31 19:06:48;;;;;;;10.40;2.90;;;24.20;70.90;;;;;;4964676;28;20058;-77
2022/05/31 19:09:14;;;;;;;15.25;3.10;;;24.20;67.80;;;;;;4965562;28;20027;-77
2022/05/31 19:11:40;;;;;;;9.50;2.90;;;24.20;68.40;;;;;;4973025;28;20070;-78
2022/05/31 19:14:08;;;;;;;9.65;2.83;;;24.10;68.80;;;;;;4970800;28;20031;-78
2022/05/31 19:16:34;;;;;;;7.40;3.10;;;24.00;68.80;;;;;;4960892;28;20023;-79
2022/05/31 19:19:00;;;;;;;8.40;3.10;;;23.90;69.30;;;;;;4954712;28;20032;-78
2022/05/31 19:21:30;;;;;;;8.90;2.80;;;23.70;68.80;;;;;;4953873;28;20020;-78
2022/05/31 19:23:57;;;;;;;8.35;3.70;;;23.70;70.10;;;;;;4971460;28;20118;-79
2022/05/31 19:26:23;;;;;;;12.75;3.08;;;23.70;70.70;;;;;;4957148;28;20533;-78
2022/05/31 19:28:50;;;;;;;6.47;3.42;;;23.70;71.10;;;;;;4957340;28;20027;-77
2022/05/31 19:31:23;;;;;;;11.20;3.10;;;23.60;72.60;;;;;;4956951;28;20090;-79
2022/05/31 19:33:55;;;;;;;7.78;3.72;;;23.50;71.60;;;;;;4959422;28;20041;-78
2022/05/31 19:36:22;;;;;;;11.30;3.65;;;23.50;71.70;;;;;;4975645;28;20454;-78
2022/05/31 19:38:50;;;;;;;7.35;3.35;;;23.40;72.20;;;;;;4976585;28;20038;-79
2022/05/31 19:41:17;;;;;;;8.52;3.53;;;23.40;73.00;;;;;;4964876;28;20499;-79
2022/05/31 19:43:44;;;;;;;11.65;3.13;;;23.40;73.20;;;;;;4957067;28;20395;-78
2022/05/31 19:46:09;;;;;;;7.15;2.58;;;23.30;73.60;;;;;;4957295;28;20082;-78